Terminal Aerodrome Forecast
Issued by NWS Shreveport, LA

Home | Current Version | Previous Version | Text Only | Print | Product List | Glossary On
Versions: 1 2 3 4 5 6 7 8 9 10 11 12 13 14 15 16
000
FTUS44 KSHV 052334
TAFMLU
TAF
KMLU 052334Z 0600/0624 15004KT P6SM SCT080 BKN250
     FM060400 15003KT P6SM BKN250
     FM061400 16006KT P6SM BKN250
     FM061600 16008KT P6SM SCT035 BKN250=

USA.gov is the U.S. government's official web portal to all federal, state and local government web resources and services.